createdAt,value
2024-03-08T00:00:17.461Z,7.18
2024-03-08T00:02:46.619Z,7.93
2024-03-08T00:05:14.297Z,7.90
2024-03-08T00:07:41.934Z,8.20
2024-03-08T00:10:12.197Z,7.75
2024-03-08T00:12:40.023Z,8.25
2024-03-08T00:15:08.466Z,8.18
2024-03-08T00:17:36.108Z,8.63
2024-03-08T00:20:04.687Z,7.60
2024-03-08T00:22:32.293Z,8.40
2024-03-08T00:25:00.134Z,7.97
2024-03-08T00:27:27.793Z,7.60
2024-03-08T00:29:55.394Z,7.18
2024-03-08T00:32:25.420Z,7.82
2024-03-08T00:34:53.884Z,7.50
2024-03-08T00:37:21.453Z,8.40
2024-03-08T00:39:49.078Z,8.15
2024-03-08T00:42:16.654Z,7.53
2024-03-08T00:44:44.282Z,7.35
2024-03-08T00:47:11.878Z,7.60
2024-03-08T00:49:39.589Z,7.82
2024-03-08T00:52:09.059Z,7.70
2024-03-08T00:54:37.070Z,7.78
2024-03-08T00:57:04.709Z,7.78
2024-03-08T00:59:33.843Z,8.43
2024-03-08T01:02:02.034Z,8.43
2024-03-08T01:04:30.659Z,8.35
2024-03-08T01:06:58.328Z,8.27
2024-03-08T01:09:26.092Z,8.07
2024-03-08T01:11:55.521Z,9.25
2024-03-08T01:14:23.639Z,7.53
2024-03-08T01:16:51.331Z,8.23
2024-03-08T01:19:18.987Z,7.85
2024-03-08T01:21:47.611Z,8.25
2024-03-08T01:24:15.200Z,7.82
2024-03-08T01:26:42.849Z,7.85
2024-03-08T01:29:10.442Z,7.28
2024-03-08T01:31:38.440Z,7.85
2024-03-08T01:34:06.212Z,8.68
2024-03-08T01:36:33.970Z,8.32
2024-03-08T01:39:01.590Z,8.93
2024-03-08T01:41:30.957Z,8.23
2024-03-08T01:43:58.818Z,7.60
2024-03-08T01:46:29.588Z,7.43
2024-03-08T01:48:57.338Z,8.70
2024-03-08T01:51:24.942Z,7.85
2024-03-08T01:53:52.669Z,8.25
2024-03-08T01:56:20.306Z,8.57
2024-03-08T01:58:48.893Z,8.32
2024-03-08T02:01:16.856Z,8.30
2024-03-08T02:03:45.292Z,9.20
2024-03-08T02:06:14.728Z,8.15
2024-03-08T02:08:42.348Z,8.20
2024-03-08T02:11:09.918Z,8.73
2024-03-08T02:13:37.546Z,8.20
2024-03-08T02:16:05.673Z,8.80
2024-03-08T02:18:35.637Z,8.23
2024-03-08T02:21:03.415Z,7.90
2024-03-08T02:23:31.323Z,7.78
2024-03-08T02:25:58.922Z,8.23
2024-03-08T02:28:27.166Z,7.88
2024-03-08T02:30:55.842Z,7.90
2024-03-08T02:33:23.525Z,8.20
2024-03-08T02:35:51.695Z,9.30
2024-03-08T02:38:19.792Z,7.53
2024-03-08T02:40:47.387Z,7.90
2024-03-08T02:43:15.726Z,8.25
2024-03-08T02:45:45.039Z,8.40
2024-03-08T02:48:13.189Z,8.13
2024-03-08T02:50:41.524Z,8.38
2024-03-08T02:53:09.242Z,8.05
2024-03-08T02:55:37.279Z,8.25
2024-03-08T02:58:05.577Z,8.90
2024-03-08T03:00:33.953Z,8.18
2024-03-08T03:03:04.104Z,8.07
2024-03-08T03:05:32.447Z,7.85
2024-03-08T03:08:00.231Z,8.85
2024-03-08T03:10:28.320Z,7.82
2024-03-08T03:12:55.888Z,7.65
2024-03-08T03:15:27.087Z,7.90
2024-03-08T03:18:06.211Z,7.88
2024-03-08T03:20:41.164Z,7.95
2024-03-08T03:23:09.491Z,7.65
2024-03-08T03:25:37.422Z,7.50
2024-03-08T03:28:05.767Z,8.30
2024-03-08T03:30:35.092Z,7.50
2024-03-08T03:33:02.839Z,7.72
2024-03-08T03:35:31.127Z,9.00
2024-03-08T03:38:07.763Z,7.53
2024-03-08T03:40:35.488Z,7.72
2024-03-08T03:43:03.831Z,8.50
2024-03-08T03:45:34.819Z,7.85
2024-03-08T03:48:03.489Z,7.57
2024-03-08T03:50:31.106Z,7.85
2024-03-08T03:52:59.485Z,8.10
2024-03-08T03:55:28.112Z,7.82
2024-03-08T03:57:55.685Z,8.02
2024-03-08T04:00:23.470Z,8.18
2024-03-08T04:02:52.424Z,8.38
2024-03-08T04:05:20.027Z,7.75
2024-03-08T04:07:47.601Z,8.10
2024-03-08T04:10:15.721Z,7.80
2024-03-08T04:12:43.406Z,7.80
2024-03-08T04:15:12.621Z,8.10
2024-03-08T04:17:40.763Z,8.00
2024-03-08T04:20:11.013Z,7.78
2024-03-08T04:22:38.786Z,8.02
2024-03-08T04:25:07.001Z,7.88
2024-03-08T04:27:35.430Z,7.82
2024-03-08T04:30:03.559Z,7.82
2024-03-08T04:32:33.700Z,7.90
2024-03-08T04:35:02.889Z,7.70
2024-03-08T04:37:31.018Z,8.68
2024-03-08T04:39:58.695Z,7.70
2024-03-08T04:42:26.417Z,7.57
2024-03-08T04:44:55.032Z,8.80
2024-03-08T04:47:23.112Z,8.25
2024-03-08T04:49:51.642Z,8.23
2024-03-08T04:52:19.427Z,8.38
2024-03-08T04:54:47.919Z,8.38
2024-03-08T04:57:15.739Z,7.40
2024-03-08T04:59:44.159Z,7.95
2024-03-08T05:02:12.739Z,8.55
2024-03-08T05:04:40.376Z,8.00
2024-03-08T05:07:08.884Z,8.38
2024-03-08T05:09:37.505Z,7.97
2024-03-08T05:12:05.481Z,8.13
2024-03-08T05:14:33.407Z,8.30
2024-03-08T05:17:01.979Z,8.23
2024-03-08T05:19:34.123Z,8.43
2024-03-08T05:22:02.828Z,7.80
2024-03-08T05:24:31.410Z,7.97
2024-03-08T05:27:00.632Z,8.15
2024-03-08T05:29:28.436Z,8.00
2024-03-08T05:31:56.249Z,7.90
2024-03-08T05:34:24.223Z,7.78
2024-03-08T05:36:52.350Z,9.25
2024-03-08T05:39:20.924Z,8.25
2024-03-08T05:41:48.938Z,8.82
2024-03-08T05:44:18.317Z,8.40
2024-03-08T05:46:48.069Z,9.02
2024-03-08T05:49:16.193Z,9.77
2024-03-08T05:51:44.071Z,9.10
2024-03-08T05:54:12.922Z,8.77
2024-03-08T05:56:43.543Z,9.02
2024-03-08T05:59:11.301Z,9.10
2024-03-08T06:01:39.236Z,8.32
2024-03-08T06:04:07.246Z,9.77
2024-03-08T06:06:41.001Z,8.82
2024-03-08T06:09:12.971Z,9.35
2024-03-08T06:11:41.382Z,8.98
2024-03-08T06:14:09.122Z,8.35
2024-03-08T06:16:37.182Z,9.00
2024-03-08T06:19:05.104Z,8.23
2024-03-08T06:21:33.532Z,9.40
2024-03-08T06:24:02.815Z,9.80
2024-03-08T06:26:31.384Z,8.95
2024-03-08T06:28:59.842Z,9.10
2024-03-08T06:31:27.715Z,8.95
2024-03-08T06:33:56.170Z,9.10
2024-03-08T06:36:24.848Z,8.65
2024-03-08T06:38:51.921Z,9.25
2024-03-08T06:41:19.589Z,9.45
2024-03-08T06:43:47.926Z,9.35
2024-03-08T06:46:15.676Z,8.77
2024-03-08T06:48:43.605Z,9.13
2024-03-08T06:51:12.201Z,8.80
2024-03-08T06:53:40.582Z,9.40
2024-03-08T06:56:09.013Z,9.27
2024-03-08T06:58:36.864Z,9.60
2024-03-08T07:01:05.768Z,9.48
2024-03-08T07:03:34.162Z,9.25
2024-03-08T07:06:03.612Z,9.63
2024-03-08T07:08:31.433Z,9.05
2024-03-08T07:11:00.167Z,8.90
2024-03-08T07:13:29.921Z,10.45
2024-03-08T07:16:00.360Z,9.93
2024-03-08T07:18:28.973Z,10.00
2024-03-08T07:20:56.796Z,10.73
2024-03-08T07:23:38.640Z,9.30
2024-03-08T07:26:07.231Z,8.82
2024-03-08T07:28:34.977Z,9.25
2024-03-08T07:31:15.552Z,9.43
2024-03-08T07:33:44.393Z,9.93
2024-03-08T07:36:12.471Z,10.27
2024-03-08T07:38:40.271Z,10.18
2024-03-08T07:41:08.044Z,9.60
2024-03-08T07:43:35.672Z,9.82
2024-03-08T07:46:03.487Z,10.25
2024-03-08T07:48:33.088Z,9.60
2024-03-08T07:51:00.819Z,8.93
2024-03-08T07:53:28.766Z,9.48
2024-03-08T07:55:56.523Z,10.00
2024-03-08T07:58:24.919Z,9.73
2024-03-08T08:00:55.941Z,10.20
2024-03-08T08:03:23.611Z,9.82
2024-03-08T08:05:51.226Z,9.70
2024-03-08T08:08:18.940Z,9.77
2024-03-08T08:10:46.593Z,9.85
2024-03-08T08:13:14.250Z,10.27
2024-03-08T08:15:41.898Z,9.40
2024-03-08T08:18:11.221Z,11.02
2024-03-08T08:20:39.407Z,10.43
2024-03-08T08:23:07.322Z,9.90
2024-03-08T08:25:35.948Z,9.55
2024-03-08T08:28:05.226Z,10.20
2024-03-08T08:30:34.177Z,9.80
2024-03-08T08:33:03.041Z,9.13
2024-03-08T08:35:31.143Z,9.38
2024-03-08T08:38:00.045Z,9.60
2024-03-08T08:40:29.854Z,10.80
2024-03-08T08:42:58.643Z,9.80
2024-03-08T08:45:27.233Z,10.07
2024-03-08T08:47:55.888Z,10.45
2024-03-08T08:50:25.471Z,9.48
2024-03-08T08:52:54.437Z,9.45
2024-03-08T08:55:26.248Z,9.70
2024-03-08T08:57:54.045Z,9.30
2024-03-08T09:00:22.928Z,10.25
2024-03-08T09:02:52.309Z,9.65
2024-03-08T09:05:20.124Z,10.50
2024-03-08T09:07:47.799Z,9.73
2024-03-08T09:10:17.628Z,10.63
2024-03-08T09:12:46.198Z,10.90
2024-03-08T09:15:15.421Z,10.15
2024-03-08T09:17:44.316Z,9.85
2024-03-08T09:20:15.862Z,10.77
2024-03-08T09:22:43.987Z,10.52
2024-03-08T09:25:11.729Z,9.82
2024-03-08T09:27:40.923Z,10.73
2024-03-08T09:30:08.853Z,9.30
2024-03-08T09:32:37.984Z,10.18
2024-03-08T09:35:08.259Z,9.90
2024-03-08T09:37:36.277Z,10.40
2024-03-08T09:40:05.877Z,10.65
2024-03-08T09:42:33.991Z,10.90
2024-03-08T09:45:01.618Z,9.55
2024-03-08T09:47:34.862Z,10.90
2024-03-08T09:50:03.333Z,9.20
2024-03-08T09:52:32.235Z,10.50
2024-03-08T09:55:01.903Z,10.18
2024-03-08T09:57:30.244Z,11.07
2024-03-08T09:59:58.057Z,10.82
2024-03-08T10:02:25.741Z,10.65
2024-03-08T10:04:54.540Z,11.02
2024-03-08T10:07:22.904Z,10.85
2024-03-08T10:09:51.811Z,10.75
2024-03-08T10:12:20.658Z,10.73
2024-03-08T10:14:48.954Z,10.80
2024-03-08T10:17:16.816Z,11.27
2024-03-08T10:19:45.365Z,10.68
2024-03-08T10:22:12.984Z,10.50
2024-03-08T10:24:41.376Z,9.82
2024-03-08T10:27:09.062Z,10.98
2024-03-08T10:29:36.701Z,11.10
2024-03-08T10:32:06.763Z,11.50
2024-03-08T10:34:34.447Z,11.13
2024-03-08T10:37:02.018Z,10.90
2024-03-08T10:39:29.618Z,11.07
2024-03-08T10:41:57.481Z,11.15
2024-03-08T10:44:25.457Z,10.60
2024-03-08T10:46:56.228Z,10.45
2024-03-08T10:49:23.992Z,10.65
2024-03-08T10:51:53.007Z,10.73
2024-03-08T10:54:20.618Z,11.85
2024-03-08T10:56:48.212Z,11.10
2024-03-08T10:59:15.872Z,10.05
2024-03-08T11:01:43.533Z,10.30
2024-03-08T11:04:11.183Z,10.18
2024-03-08T11:06:38.929Z,10.57
2024-03-08T11:09:06.591Z,10.43
2024-03-08T11:11:35.839Z,11.15
2024-03-08T11:14:04.060Z,11.85
2024-03-08T11:16:32.331Z,10.18
2024-03-08T11:19:01.490Z,9.85
2024-03-08T11:21:29.099Z,10.02
2024-03-08T11:23:56.732Z,10.10
2024-03-08T11:26:24.310Z,10.48
2024-03-08T11:28:54.101Z,11.00
2024-03-08T11:31:20.759Z,10.70
2024-03-08T11:33:49.849Z,10.20
2024-03-08T11:36:18.172Z,11.00
2024-03-08T11:38:46.339Z,9.88
2024-03-08T11:41:18.784Z,10.73
2024-03-08T11:43:47.104Z,10.38
2024-03-08T11:46:14.797Z,9.02
2024-03-08T11:48:43.152Z,11.60
2024-03-08T11:51:12.822Z,10.10
2024-03-08T11:53:40.497Z,10.43
2024-03-08T11:56:08.258Z,10.32
2024-03-08T11:58:37.294Z,9.95
2024-03-08T12:01:05.946Z,9.98
2024-03-08T12:03:34.955Z,9.88
2024-03-08T12:06:04.562Z,10.40
2024-03-08T12:08:32.369Z,10.50
2024-03-08T12:11:01.418Z,10.52
2024-03-08T12:13:30.495Z,11.48
2024-03-08T12:15:59.410Z,9.95
2024-03-08T12:18:27.405Z,10.27
2024-03-08T12:20:56.004Z,11.20
2024-03-08T12:23:23.589Z,10.15
2024-03-08T12:25:51.237Z,10.65
2024-03-08T12:28:20.589Z,11.50
2024-03-08T12:30:48.250Z,11.38
2024-03-08T12:33:15.890Z,11.20
2024-03-08T12:35:44.233Z,10.82
2024-03-08T12:38:11.859Z,10.38
2024-03-08T12:40:43.661Z,11.23
2024-03-08T12:43:11.421Z,10.90
2024-03-08T12:45:39.078Z,10.95
2024-03-08T12:48:06.703Z,11.65
2024-03-08T12:50:34.393Z,11.32
2024-03-08T12:53:03.602Z,11.25
2024-03-08T12:55:34.988Z,11.73
2024-03-08T12:58:04.563Z,10.68
2024-03-08T13:00:32.217Z,10.27
2024-03-08T13:03:00.375Z,13.63
2024-03-08T13:05:28.625Z,12.02
2024-03-08T13:07:56.393Z,14.38
2024-03-08T13:10:24.263Z,12.45
2024-03-08T13:12:54.757Z,11.65
2024-03-08T13:15:22.661Z,11.50
2024-03-08T13:17:50.411Z,12.02
2024-03-08T13:20:25.273Z,12.82
2024-03-08T13:23:01.422Z,13.90
2024-03-08T13:25:29.316Z,10.35
2024-03-08T13:27:58.395Z,10.90
2024-03-08T13:30:27.633Z,11.82
2024-03-08T13:32:55.417Z,11.05
2024-03-08T13:35:25.574Z,10.80
2024-03-08T13:37:53.333Z,11.38
2024-03-08T13:40:21.415Z,10.45
2024-03-08T13:42:50.054Z,11.13
2024-03-08T13:45:18.912Z,10.90
2024-03-08T13:47:47.540Z,11.13
2024-03-08T13:50:18.955Z,10.65
2024-03-08T13:52:46.557Z,10.50
2024-03-08T13:55:14.315Z,13.80
2024-03-08T13:57:41.923Z,11.05
2024-03-08T14:00:09.567Z,9.35
2024-03-08T14:02:37.128Z,10.48
2024-03-08T14:05:04.921Z,11.77
2024-03-08T14:07:32.978Z,11.13
2024-03-08T14:10:00.588Z,10.82
2024-03-08T14:12:30.473Z,11.27
2024-03-08T14:15:00.664Z,11.23
2024-03-08T14:17:28.866Z,10.43
2024-03-08T14:19:56.702Z,11.30
2024-03-08T14:22:24.750Z,10.40
2024-03-08T14:24:52.941Z,10.50
2024-03-08T14:27:20.513Z,11.80
2024-03-08T14:29:48.079Z,10.52
2024-03-08T14:32:20.920Z,10.52
2024-03-08T14:34:48.819Z,10.30
2024-03-08T14:37:16.942Z,11.05
2024-03-08T14:39:44.551Z,10.55
2024-03-08T14:42:14.486Z,10.30
2024-03-08T14:44:42.490Z,10.30
2024-03-08T14:47:11.442Z,11.30
2024-03-08T14:49:39.322Z,11.23
2024-03-08T14:52:26.974Z,11.20
2024-03-08T14:54:54.562Z,10.73
2024-03-08T14:57:22.218Z,11.07
2024-03-08T14:59:49.783Z,12.20
2024-03-08T15:02:18.743Z,11.32
2024-03-08T15:04:48.036Z,10.25
2024-03-08T15:07:16.070Z,10.98
2024-03-08T15:09:44.852Z,10.85
2024-03-08T15:12:12.592Z,10.68
2024-03-08T15:14:40.600Z,9.65
2024-03-08T15:17:11.995Z,10.00
2024-03-08T15:19:40.174Z,10.00
2024-03-08T15:22:07.797Z,9.95
2024-03-08T15:24:35.368Z,10.13
2024-03-08T15:27:03.844Z,9.77
2024-03-08T15:29:32.886Z,9.27
2024-03-08T15:32:00.531Z,9.07
2024-03-08T15:34:28.300Z,9.27
2024-03-08T15:36:59.005Z,9.10
2024-03-08T15:39:26.962Z,9.00
2024-03-08T15:41:55.916Z,8.75
2024-03-08T15:44:23.572Z,8.82
2024-03-08T15:46:51.183Z,9.30
2024-03-08T15:49:19.979Z,8.98
2024-03-08T15:51:47.667Z,8.80
2024-03-08T15:54:15.290Z,9.57
2024-03-08T15:56:42.918Z,9.38
2024-03-08T15:59:10.530Z,10.73
2024-03-08T16:01:38.640Z,8.45
2024-03-08T16:04:07.904Z,8.63
2024-03-08T16:06:37.523Z,9.00
2024-03-08T16:09:05.443Z,9.43
2024-03-08T16:11:34.206Z,10.30
2024-03-08T16:14:04.413Z,10.35
2024-03-08T16:16:33.263Z,8.48
2024-03-08T16:19:00.923Z,10.40
2024-03-08T16:21:28.522Z,9.80
2024-03-08T16:23:56.173Z,9.85
2024-03-08T16:26:25.646Z,9.95
2024-03-08T16:28:54.968Z,9.35
2024-03-08T16:31:22.618Z,9.90
2024-03-08T16:33:50.214Z,9.65
2024-03-08T16:36:18.071Z,8.73
2024-03-08T16:38:47.466Z,8.98
2024-03-08T16:41:15.158Z,8.77
2024-03-08T16:43:44.905Z,8.80
2024-03-08T16:46:12.859Z,9.32
2024-03-08T16:48:56.187Z,8.52
2024-03-08T16:51:23.759Z,8.75
2024-03-08T16:53:51.824Z,8.95
2024-03-08T16:56:19.452Z,9.40
2024-03-08T16:58:47.969Z,8.43
2024-03-08T17:01:17.508Z,8.90
2024-03-08T17:03:52.701Z,7.88
2024-03-08T17:06:27.404Z,8.70
2024-03-08T17:08:55.176Z,9.35
2024-03-08T17:11:23.432Z,8.52
2024-03-08T17:13:51.228Z,8.43
2024-03-08T17:16:20.978Z,8.88
2024-03-08T17:18:49.658Z,8.80
2024-03-08T17:21:17.573Z,9.15
2024-03-08T17:23:45.158Z,9.25
2024-03-08T17:26:13.600Z,9.15
2024-03-08T17:28:43.415Z,8.63
2024-03-08T17:31:13.091Z,8.40
2024-03-08T17:33:42.847Z,8.23
2024-03-08T17:36:12.504Z,9.27
2024-03-08T17:38:48.642Z,8.35
2024-03-08T17:41:20.332Z,9.57
2024-03-08T17:43:47.980Z,9.18
2024-03-08T17:46:16.778Z,8.55
2024-03-08T17:48:44.344Z,8.75
2024-03-08T17:51:13.524Z,8.15
2024-03-08T17:53:41.089Z,9.43
2024-03-08T17:56:08.949Z,8.18
2024-03-08T17:58:36.748Z,8.60
2024-03-08T18:01:04.764Z,8.98
2024-03-08T18:03:33.111Z,8.95
2024-03-08T18:06:00.723Z,8.95
2024-03-08T18:08:28.240Z,8.88
2024-03-08T18:10:55.959Z,7.93
2024-03-08T18:13:24.731Z,8.45
2024-03-08T18:15:52.680Z,8.02
2024-03-08T18:18:20.345Z,8.88
2024-03-08T18:20:49.945Z,8.75
2024-03-08T18:23:17.761Z,8.63
2024-03-08T18:25:45.832Z,8.73
2024-03-08T18:28:14.328Z,9.75
2024-03-08T18:30:44.456Z,8.90
2024-03-08T18:33:13.198Z,8.57
2024-03-08T18:35:42.126Z,9.30
2024-03-08T18:38:10.217Z,8.65
2024-03-08T18:40:37.867Z,9.20
2024-03-08T18:43:07.265Z,9.27
2024-03-08T18:45:35.624Z,8.30
2024-03-08T18:48:07.283Z,8.93
2024-03-08T18:50:35.480Z,7.25
2024-03-08T18:53:04.105Z,8.20
2024-03-08T18:55:33.434Z,8.57
2024-03-08T18:58:03.065Z,8.88
2024-03-08T19:00:31.658Z,9.60
2024-03-08T19:03:00.882Z,8.60
2024-03-08T19:05:28.768Z,8.25
2024-03-08T19:07:56.347Z,9.07
2024-03-08T19:10:23.937Z,8.60
2024-03-08T19:12:52.172Z,8.95
2024-03-08T19:15:20.725Z,9.60
2024-03-08T19:17:48.682Z,9.27
2024-03-08T19:20:19.233Z,9.70
2024-03-08T19:22:46.927Z,9.38
2024-03-08T19:25:14.482Z,9.23
2024-03-08T19:27:42.979Z,9.60
2024-03-08T19:30:11.267Z,10.15
2024-03-08T19:32:39.993Z,8.98
2024-03-08T19:35:12.138Z,9.30
2024-03-08T19:37:40.731Z,10.05
2024-03-08T19:40:08.919Z,9.70
2024-03-08T19:42:37.543Z,10.88
2024-03-08T19:45:05.119Z,10.18
2024-03-08T19:47:32.746Z,10.63
2024-03-08T19:50:00.401Z,9.75
2024-03-08T19:52:28.022Z,9.27
2024-03-08T19:54:57.101Z,9.80
2024-03-08T19:57:24.672Z,9.73
2024-03-08T19:59:53.526Z,8.75
2024-03-08T20:02:21.119Z,8.77
2024-03-08T20:04:48.823Z,9.93
2024-03-08T20:07:17.882Z,10.57
2024-03-08T20:09:45.787Z,10.18
2024-03-08T20:12:13.402Z,10.05
2024-03-08T20:14:41.129Z,10.75
2024-03-08T20:17:10.156Z,10.60
2024-03-08T20:19:38.077Z,10.57
2024-03-08T20:22:05.973Z,10.77
2024-03-08T20:24:33.507Z,11.15
2024-03-08T20:27:02.696Z,10.90
2024-03-08T20:29:32.165Z,12.13
2024-03-08T20:32:00.467Z,11.35
2024-03-08T20:34:28.131Z,10.23
2024-03-08T20:36:55.676Z,11.15
2024-03-08T20:39:23.260Z,11.27
2024-03-08T20:41:55.382Z,11.85
2024-03-08T20:44:22.930Z,11.43
2024-03-08T20:46:51.325Z,11.80
2024-03-08T20:49:20.329Z,12.13
2024-03-08T20:51:48.000Z,11.85
2024-03-08T20:54:16.219Z,11.07
2024-03-08T20:56:47.570Z,12.30
2024-03-08T20:59:15.652Z,11.70
2024-03-08T21:01:43.323Z,10.95
2024-03-08T21:04:14.759Z,11.90
2024-03-08T21:06:41.336Z,12.43
2024-03-08T21:09:12.633Z,11.52
2024-03-08T21:11:41.316Z,11.77
2024-03-08T21:14:11.594Z,12.40
2024-03-08T21:16:40.051Z,13.40
2024-03-08T21:19:07.710Z,11.77
2024-03-08T21:21:35.395Z,13.00
2024-03-08T21:24:02.981Z,12.05
2024-03-08T21:26:31.205Z,12.75
2024-03-08T21:28:58.768Z,12.85
2024-03-08T21:31:26.553Z,12.15
2024-03-08T21:33:54.456Z,13.18
2024-03-08T21:36:23.419Z,11.52
2024-03-08T21:38:51.019Z,12.27
2024-03-08T21:41:18.575Z,12.13
2024-03-08T21:43:46.558Z,12.88
2024-03-08T21:46:16.680Z,13.75
2024-03-08T21:48:44.270Z,13.48
2024-03-08T21:51:12.555Z,13.23
2024-03-08T21:53:40.782Z,13.75
2024-03-08T21:56:11.454Z,13.27
2024-03-08T21:58:41.379Z,12.13
2024-03-08T22:01:11.156Z,13.07
2024-03-08T22:03:39.621Z,12.85
2024-03-08T22:06:10.961Z,13.68
2024-03-08T22:08:41.564Z,14.68
2024-03-08T22:11:09.481Z,12.35
2024-03-08T22:13:36.247Z,13.70
2024-03-08T22:16:04.562Z,13.52
2024-03-08T22:18:33.505Z,13.20
2024-03-08T22:21:01.153Z,12.27
2024-03-08T22:23:28.706Z,12.23
2024-03-08T22:25:56.745Z,12.25
2024-03-08T22:28:26.963Z,12.38
2024-03-08T22:30:55.289Z,11.75
2024-03-08T22:33:24.052Z,12.40
2024-03-08T22:35:51.567Z,12.30
2024-03-08T22:38:20.272Z,12.75
2024-03-08T22:40:48.841Z,12.43
2024-03-08T22:43:18.088Z,11.98
2024-03-08T22:45:47.549Z,11.32
2024-03-08T22:48:15.281Z,12.05
2024-03-08T22:50:42.842Z,12.20
2024-03-08T22:53:14.536Z,12.85
2024-03-08T22:55:42.330Z,12.95
2024-03-08T22:58:10.157Z,12.32
2024-03-08T23:00:57.141Z,12.20
2024-03-08T23:03:25.379Z,12.30
2024-03-08T23:05:53.021Z,11.68
2024-03-08T23:08:21.111Z,12.38
2024-03-08T23:10:49.378Z,12.70
2024-03-08T23:13:17.300Z,11.75
2024-03-08T23:15:45.027Z,11.95
2024-03-08T23:18:12.747Z,12.10
2024-03-08T23:20:43.403Z,11.57
2024-03-08T23:23:11.000Z,12.48
2024-03-08T23:25:38.670Z,12.15
2024-03-08T23:28:08.191Z,12.02
2024-03-08T23:30:40.212Z,12.07
2024-03-08T23:33:08.935Z,13.20
2024-03-08T23:35:37.078Z,12.43
2024-03-08T23:38:06.958Z,12.63
2024-03-08T23:40:34.717Z,12.18
2024-03-08T23:43:02.394Z,11.50
2024-03-08T23:45:31.252Z,12.15
2024-03-08T23:48:00.523Z,11.98
2024-03-08T23:50:28.329Z,13.05
2024-03-08T23:52:56.294Z,13.40
2024-03-08T23:55:28.643Z,12.18
2024-03-08T23:57:57.634Z,12.75
